Time;durP1;ratioP1;P1;durP2;ratioP2;P2;SDS_P1;SDS_P2;PMS_P1;PMS_P2;Temp;Humidity;BMP_temperature;BMP_pressure;BME280_temperature;BME280_humidity;BME280_pressure;Samples;Min_cycle;Max_cycle;Signal;HPM_P1;HPM_P2
2023/05/03 00:00:17;;;;;;;2.2;1.1;;;;;;;;;;;;;-70
2023/05/03 00:00:30;;;;;;;;;;;;;;;7.03;57.64746;103109.8;;;;-70
2023/05/03 00:05:32;;;;;;;;;;;;;;;7.04;57.6377;103112.8;;;;-71
2023/05/03 00:10:31;;;;;;;;;;;;;;;7.1;57.55664;103115.4;;;;-70
2023/05/03 00:15:31;;;;;;;;;;;;;;;7.17;57.40039;103115.8;;;;-72
2023/05/03 00:20:31;;;;;;;;;;;;;;;7.14;57.51855;103113.4;;;;-71
2023/05/03 00:25:30;;;;;;;;;;;;;;;7.2;57.51465;103113.4;;;;-70
2023/05/03 00:30:17;;;;;;;2.5;1.1;;;;;;;;;;;;;-71
2023/05/03 00:30:31;;;;;;;;;;;;;;;7.2;57.2832;103103.8;;;;-71
2023/05/03 00:35:30;;;;;;;;;;;;;;;7.15;57.59668;103107.6;;;;-71
2023/05/03 00:40:30;;;;;;;;;;;;;;;7.13;57.44043;103099.5;;;;-71
2023/05/03 00:45:32;;;;;;;;;;;;;;;7.05;57.38574;103100.6;;;;-72
2023/05/03 00:50:30;;;;;;;;;;;;;;;6.99;57.54297;103104.7;;;;-70
2023/05/03 00:55:32;;;;;;;;;;;;;;;6.96;57.68164;103107.3;;;;-70
2023/05/03 01:00:18;;;;;;;2;1.1;;;;;;;;;;;;;-72
2023/05/03 01:00:30;;;;;;;;;;;;;;;6.94;57.49121;103108.9;;;;-69
2023/05/03 01:05:32;;;;;;;;;;;;;;;6.92;57.55566;103112.1;;;;-70
2023/05/03 01:10:36;;;;;;;;;;;;;;;6.88;57.38477;103109.3;;;;-71
2023/05/03 01:15:38;;;;;;;;;;;;;;;6.91;57.46582;103109;;;;-72
2023/05/03 01:20:33;;;;;;;;;;;;;;;6.87;57.57031;103107;;;;-69
2023/05/03 01:25:31;;;;;;;;;;;;;;;6.91;57.77539;103103.6;;;;-70
2023/05/03 01:30:18;;;;;;;3.1;1.1;;;;;;;;;;;;;-71
2023/05/03 01:30:31;;;;;;;;;;;;;;;6.93;57.90918;103097;;;;-70
2023/05/03 01:35:34;;;;;;;;;;;;;;;6.96;57.91406;103093.7;;;;-70
2023/05/03 01:40:32;;;;;;;;;;;;;;;6.97;57.79395;103090.2;;;;-71
2023/05/03 01:45:31;;;;;;;;;;;;;;;6.99;57.59863;103078.4;;;;-69
2023/05/03 01:50:30;;;;;;;;;;;;;;;6.96;57.73828;103082.8;;;;-71
2023/05/03 01:55:31;;;;;;;;;;;;;;;6.94;57.73438;103080.1;;;;-70
2023/05/03 02:00:19;;;;;;;2.2;0.9;;;;;;;;;;;;;-71
2023/05/03 02:00:30;;;;;;;;;;;;;;;6.9;57.77344;103067.9;;;;-68
2023/05/03 02:05:30;;;;;;;;;;;;;;;6.87;57.82422;103057.1;;;;-69
2023/05/03 02:10:30;;;;;;;;;;;;;;;6.83;57.65234;103046.8;;;;-71
2023/05/03 02:15:30;;;;;;;;;;;;;;;6.85;57.7666;103032.3;;;;-72
2023/05/03 02:20:35;;;;;;;;;;;;;;;6.82;57.78516;103023.9;;;;-71
2023/05/03 02:25:30;;;;;;;;;;;;;;;6.75;57.74219;103028.6;;;;-70
2023/05/03 02:30:19;;;;;;;1.8;0.8;;;;;;;;;;;;;-70
2023/05/03 02:30:31;;;;;;;;;;;;;;;6.75;57.56641;103035.7;;;;-70
2023/05/03 02:35:31;;;;;;;;;;;;;;;6.69;57.82324;103038.7;;;;-70
2023/05/03 02:40:31;;;;;;;;;;;;;;;6.68;57.74512;103046.8;;;;-69
2023/05/03 02:45:30;;;;;;;;;;;;;;;6.63;57.80371;103058.9;;;;-69
2023/05/03 02:50:30;;;;;;;;;;;;;;;6.59;57.82129;103070.1;;;;-70
2023/05/03 02:55:30;;;;;;;;;;;;;;;6.55;57.7041;103065.6;;;;-71
2023/05/03 03:00:21;;;;;;;1.6;0.7;;;;;;;;;;;;;-70
2023/05/03 03:00:31;;;;;;;;;;;;;;;6.51;57.67871;103065.1;;;;-68
2023/05/03 03:05:32;;;;;;;;;;;;;;;6.52;57.5127;103067.3;;;;-72
2023/05/03 03:10:30;;;;;;;;;;;;;;;6.44;57.67871;103075.4;;;;-72
2023/05/03 03:15:30;;;;;;;;;;;;;;;6.41;57.57617;103080.3;;;;-70
2023/05/03 03:20:30;;;;;;;;;;;;;;;6.42;57.56641;103082.5;;;;-70
2023/05/03 03:25:30;;;;;;;;;;;;;;;6.43;57.60059;103083.7;;;;-71
2023/05/03 03:30:21;;;;;;;2.1;0.7;;;;;;;;;;;;;-72
2023/05/03 03:30:31;;;;;;;;;;;;;;;6.43;57.63379;103086.3;;;;-68
2023/05/03 03:35:31;;;;;;;;;;;;;;;6.41;57.77441;103083.8;;;;-71
2023/05/03 03:40:30;;;;;;;;;;;;;;;6.44;57.51465;103082;;;;-70
2023/05/03 03:45:30;;;;;;;;;;;;;;;6.45;57.70215;103076.2;;;;-71
2023/05/03 03:50:30;;;;;;;;;;;;;;;6.48;57.82715;103077.6;;;;-71
2023/05/03 03:55:31;;;;;;;;;;;;;;;6.53;57.625;103074;;;;-72
2023/05/03 04:00:22;;;;;;;1.5;0.8;;;;;;;;;;;;;-70
2023/05/03 04:00:31;;;;;;;;;;;;;;;6.56;57.47461;103076;;;;-69
2023/05/03 04:05:31;;;;;;;;;;;;;;;6.6;57.49121;103087.7;;;;-71
2023/05/03 04:10:30;;;;;;;;;;;;;;;6.64;57.61719;103098.4;;;;-70
2023/05/03 04:15:30;;;;;;;;;;;;;;;6.69;57.46973;103103.8;;;;-71
2023/05/03 04:20:31;;;;;;;;;;;;;;;6.69;57.66895;103103.9;;;;-69
2023/05/03 04:25:31;;;;;;;;;;;;;;;6.74;57.64258;103104;;;;-71
2023/05/03 04:30:23;;;;;;;1.9;0.6;;;;;;;;;;;;;-72
2023/05/03 04:30:33;;;;;;;;;;;;;;;6.78;57.55762;103097.9;;;;-72
2023/05/03 04:35:30;;;;;;;;;;;;;;;6.83;57.47559;103104.6;;;;-71
2023/05/03 04:40:30;;;;;;;;;;;;;;;6.86;57.66992;103097;;;;-70
2023/05/03 04:45:30;;;;;;;;;;;;;;;6.96;57.48438;103101;;;;-70
2023/05/03 04:50:31;;;;;;;;;;;;;;;6.99;57.49902;103111.8;;;;-72
2023/05/03 04:55:30;;;;;;;;;;;;;;;7.06;57.33203;103117.7;;;;-70
2023/05/03 05:00:24;;;;;;;2.5;0.8;;;;;;;;;;;;;-71
2023/05/03 05:00:33;;;;;;;;;;;;;;;7.11;57.37109;103112.7;;;;-71
2023/05/03 05:05:30;;;;;;;;;;;;;;;7.14;57.41895;103115.3;;;;-70
2023/05/03 05:10:30;;;;;;;;;;;;;;;7.22;57.45215;103119.3;;;;-71
2023/05/03 05:15:30;;;;;;;;;;;;;;;7.29;57.27246;103112.5;;;;-70
2023/05/03 05:20:30;;;;;;;;;;;;;;;7.36;57.22754;103107;;;;-71
2023/05/03 05:25:33;;;;;;;;;;;;;;;7.42;57.13574;103116.7;;;;-70
2023/05/03 05:30:24;;;;;;;2.1;0.7;;;;;;;;;;;;;-72
2023/05/03 05:30:34;;;;;;;;;;;;;;;7.45;57.15039;103103.6;;;;-69
2023/05/03 05:35:34;;;;;;;;;;;;;;;7.56;57.3418;103116.7;;;;-71
2023/05/03 05:40:30;;;;;;;;;;;;;;;7.66;57.03516;103118.7;;;;-71
2023/05/03 05:45:30;;;;;;;;;;;;;;;7.74;57.31055;103128.9;;;;-70
2023/05/03 05:50:31;;;;;;;;;;;;;;;7.84;57.19043;103119;;;;-71
2023/05/03 05:55:30;;;;;;;;;;;;;;;7.96;57.20605;103130.6;;;;-72
2023/05/03 06:00:25;;;;;;;1.5;0.7;;;;;;;;;;;;;-70
2023/05/03 06:00:36;;;;;;;;;;;;;;;8.17;57.37793;103118.8;;;;-73
2023/05/03 06:05:30;;;;;;;;;;;;;;;8.49;56.93359;103123.1;;;;-70
2023/05/03 06:10:33;;;;;;;;;;;;;;;8.68;56.38184;103121.8;;;;-71
2023/05/03 06:15:30;;;;;;;;;;;;;;;8.78;56.27246;103122.4;;;;-70
2023/05/03 06:20:30;;;;;;;;;;;;;;;8.83;56.37988;103133.5;;;;-71
2023/05/03 06:25:30;;;;;;;;;;;;;;;8.89;56.21875;103142.1;;;;-72
2023/05/03 06:30:27;;;;;;;1.6;0.9;;;;;;;;;;;;;-71
2023/05/03 06:30:37;;;;;;;;;;;;;;;8.9;56.47656;103135.5;;;;-73
2023/05/03 06:35:31;;;;;;;;;;;;;;;9.05;56.0957;103133.3;;;;-71
2023/05/03 06:40:30;;;;;;;;;;;;;;;9.17;55.72266;103124.3;;;;-71
2023/05/03 06:45:30;;;;;;;;;;;;;;;9.39;55.38379;103123.8;;;;-72
2023/05/03 06:50:30;;;;;;;;;;;;;;;9.5;55.15234;103119.7;;;;-70
2023/05/03 06:55:31;;;;;;;;;;;;;;;9.61;55.01074;103109.2;;;;-71
2023/05/03 07:00:27;;;;;;;2.3;0.9;;;;;;;;;;;;;-70
2023/05/03 07:00:37;;;;;;;;;;;;;;;9.73;54.69238;103100.8;;;;-71
2023/05/03 07:05:30;;;;;;;;;;;;;;;9.88;54.50098;103106.7;;;;-69
2023/05/03 07:10:31;;;;;;;;;;;;;;;9.97;54.48926;103099.7;;;;-70
2023/05/03 07:15:31;;;;;;;;;;;;;;;10.05;54.3877;103093.6;;;;-69
2023/05/03 07:20:30;;;;;;;;;;;;;;;10.16;54.41309;103093;;;;-71
2023/05/03 07:25:30;;;;;;;;;;;;;;;10.3;54.28613;103093;;;;-68
2023/05/03 07:30:28;;;;;;;2.9;0.8;;;;;;;;;;;;;-68
2023/05/03 07:30:38;;;;;;;;;;;;;;;10.41;54.20898;103090.9;;;;-71
2023/05/03 07:35:31;;;;;;;;;;;;;;;10.55;54.00293;103095;;;;-69
2023/05/03 07:40:32;;;;;;;;;;;;;;;10.75;53.7168;103093;;;;-67
2023/05/03 07:45:30;;;;;;;;;;;;;;;11.07;53.26465;103092.2;;;;-70
2023/05/03 07:50:31;;;;;;;;;;;;;;;11.38;53.22461;103090.4;;;;-68
2023/05/03 07:55:31;;;;;;;;;;;;;;;12.16;52.15527;103087.3;;;;-67
2023/05/03 08:00:29;;;;;;;3.4;1;;;;;;;;;;;;;-67
2023/05/03 08:00:40;;;;;;;;;;;;;;;12.91;50.4502;103066.8;;;;-68
2023/05/03 08:05:30;;;;;;;;;;;;;;;13.08;49.55957;103063.4;;;;-67
2023/05/03 08:10:30;;;;;;;;;;;;;;;13.04;49.79004;103079.6;;;;-67
2023/05/03 08:15:30;;;;;;;;;;;;;;;12.85;49.93652;103093.7;;;;-69
2023/05/03 08:20:30;;;;;;;;;;;;;;;12.8;50.34668;103102.6;;;;-68
2023/05/03 08:25:31;;;;;;;;;;;;;;;12.77;50.0293;103103.8;;;;-70
2023/05/03 08:30:30;;;;;;;2.4;1;;;;;;;;;;;;;-70
2023/05/03 08:30:40;;;;;;;;;;;;;;;12.75;50.25098;103110;;;;-70
2023/05/03 08:35:30;;;;;;;;;;;;;;;13.04;50.18262;103117.4;;;;-68
2023/05/03 08:40:34;;;;;;;;;;;;;;;13.04;49.9248;103116.8;;;;-69
2023/05/03 08:45:30;;;;;;;;;;;;;;;13.11;49.97754;103114;;;;-68
2023/05/03 08:50:30;;;;;;;;;;;;;;;13.22;49.53027;103113.1;;;;-67
2023/05/03 08:55:30;;;;;;;;;;;;;;;13.22;49.88965;103110.3;;;;-69
2023/05/03 09:00:34;;;;;;;;;;;;;;;13.85;49.87109;103104;;;;-69
2023/05/03 09:00:44;;;;;;;2.9;1.1;;;;;;;;;;;;;-69
2023/05/03 09:05:43;;;;;;;;;;;;;;;14.72;48.9668;103099.2;;;;-67
2023/05/03 09:10:32;;;;;;;;;;;;;;;15.43;47.31738;103099.5;;;;-68
2023/05/03 09:15:30;;;;;;;;;;;;;;;15.82;46.97363;103102;;;;-68
2023/05/03 09:20:37;;;;;;;;;;;;;;;15.9;46.24707;103091;;;;-68
2023/05/03 09:25:40;;;;;;;;;;;;;;;16.05;46.02734;103094.5;;;;-68
2023/05/03 09:30:30;;;;;;;;;;;;;;;16.21;46.32617;103096.5;;;;-69
2023/05/03 09:30:40;;;;;;;3.4;1.4;;;;;;;;;;;;;-69
2023/05/03 09:35:31;;;;;;;;;;;;;;;16.29;45.7334;103105;;;;-68
2023/05/03 09:40:30;;;;;;;;;;;;;;;16.3;45.88184;103099.9;;;;-68
2023/05/03 09:45:30;;;;;;;;;;;;;;;16.51;45.76855;103094.1;;;;-69
2023/05/03 09:50:30;;;;;;;;;;;;;;;16.66;45.28516;103104.3;;;;-69
2023/05/03 09:55:31;;;;;;;;;;;;;;;16.8;45.75293;103101;;;;-71
2023/05/03 10:00:32;;;;;;;;;;;;;;;17.03;45.56055;103090.8;;;;-68
2023/05/03 10:00:45;;;;;;;3.6;1.4;;;;;;;;;;;;;-68
2023/05/03 10:05:34;;;;;;;;;;;;;;;17.58;45.24219;103093.7;;;;-68
2023/05/03 10:10:31;;;;;;;;;;;;;;;18.07;44.07617;103087.9;;;;-68
2023/05/03 10:15:32;;;;;;;;;;;;;;;18.29;43.80078;103091.8;;;;-69
2023/05/03 10:20:34;;;;;;;;;;;;;;;18.44;44.1582;103090.9;;;;-67
2023/05/03 10:25:31;;;;;;;;;;;;;;;18.78;44.88672;103094.9;;;;-69
2023/05/03 10:30:35;;;;;;;;;;;;;;;19;45.3418;103088.1;;;;-70
2023/05/03 10:30:44;;;;;;;4.3;1.6;;;;;;;;;;;;;-70
2023/05/03 10:35:32;;;;;;;;;;;;;;;19.3;44.3125;103082;;;;-69
2023/05/03 10:40:41;;;;;;;;;;;;;;;19.53;45.84082;103087.7;;;;-69
2023/05/03 10:45:32;;;;;;;;;;;;;;;19.81;45.35645;103079.4;;;;-68
2023/05/03 10:50:34;;;;;;;;;;;;;;;20.03;44.55664;103072.4;;;;-69
2023/05/03 10:55:32;;;;;;;;;;;;;;;20.16;45.1875;103067.5;;;;-69
2023/05/03 11:00:32;;;;;;;;;;;;;;;20.26;45.03711;103063.2;;;;-68
2023/05/03 11:00:44;;;;;;;3.2;1.7;;;;;;;;;;;;;-68
2023/05/03 11:05:32;;;;;;;;;;;;;;;20.53;44.49316;103055;;;;-69
2023/05/03 11:10:30;;;;;;;;;;;;;;;20.74;45.21191;103050.5;;;;-69
2023/05/03 11:15:31;;;;;;;;;;;;;;;20.86;44.45703;103043.8;;;;-70
2023/05/03 11:20:30;;;;;;;;;;;;;;;21.08;45.87598;103040.2;;;;-70
2023/05/03 11:25:32;;;;;;;;;;;;;;;21.31;45.08594;103043.8;;;;-68
2023/05/03 11:30:31;;;;;;;;;;;;;;;21.46;43.7373;103045;;;;-69
2023/05/03 11:30:44;;;;;;;4.9;1.4;;;;;;;;;;;;;-68
2023/05/03 11:35:31;;;;;;;;;;;;;;;21.62;43.38477;103037.2;;;;-68
2023/05/03 11:40:30;;;;;;;;;;;;;;;21.72;43.40625;103036;;;;-69
2023/05/03 11:45:32;;;;;;;;;;;;;;;21.82;44.07031;103032.8;;;;-68
2023/05/03 11:50:43;;;;;;;;;;;;;;;21.89;44.00879;103020.1;;;;-68
2023/05/03 11:55:30;;;;;;;;;;;;;;;21.94;45.36719;103017.1;;;;-69
2023/05/03 12:00:31;;;;;;;;;;;;;;;22.18;45.20898;103015.2;;;;-70
2023/05/03 12:00:50;;;;;;;2.9;1.3;;;;;;;;;;;;;-71
2023/05/03 12:05:30;;;;;;;;;;;;;;;22.27;44.82617;103010.4;;;;-68
2023/05/03 12:10:34;;;;;;;;;;;;;;;22.34;45.84473;103004.1;;;;-72
2023/05/03 12:15:35;;;;;;;;;;;;;;;22.46;44.66211;103005.9;;;;-68
2023/05/03 12:20:31;;;;;;;;;;;;;;;22.53;45.12988;102987.3;;;;-70
2023/05/03 12:25:31;;;;;;;;;;;;;;;22.52;43.94434;102985.7;;;;-68
2023/05/03 12:30:31;;;;;;;;;;;;;;;22.53;44.42676;102977.2;;;;-69
2023/05/03 12:30:50;;;;;;;3.7;1.5;;;;;;;;;;;;;-68
2023/05/03 12:35:31;;;;;;;;;;;;;;;22.64;43.84082;102981.4;;;;-69
2023/05/03 12:40:30;;;;;;;;;;;;;;;22.67;43.64746;102970.8;;;;-68
2023/05/03 12:45:31;;;;;;;;;;;;;;;22.67;44.28027;102959.8;;;;-69
2023/05/03 12:50:30;;;;;;;;;;;;;;;22.79;42.52051;102969.1;;;;-68
2023/05/03 12:55:33;;;;;;;;;;;;;;;22.79;43.61328;102959.2;;;;-69
2023/05/03 13:00:33;;;;;;;;;;;;;;;22.85;42.30762;102955.1;;;;-68
2023/05/03 13:00:57;;;;;;;4.2;1.4;;;;;;;;;;;;;-69
2023/05/03 13:05:30;;;;;;;;;;;;;;;22.85;41.89355;102948.6;;;;-69
2023/05/03 13:10:30;;;;;;;;;;;;;;;22.98;41.75684;102943.8;;;;-69
2023/05/03 13:15:30;;;;;;;;;;;;;;;22.96;40.9375;102940.8;;;;-68
2023/05/03 13:20:31;;;;;;;;;;;;;;;22.98;42.52832;102936.5;;;;-68
2023/05/03 13:25:30;;;;;;;;;;;;;;;22.97;43.24023;102931;;;;-68
2023/05/03 13:30:31;;;;;;;;;;;;;;;23.04;42.1416;102914;;;;-70
2023/05/03 13:30:58;;;;;;;3.1;1.4;;;;;;;;;;;;;-69
2023/05/03 13:35:30;;;;;;;;;;;;;;;23.05;41.66992;102913.7;;;;-68
2023/05/03 13:40:30;;;;;;;;;;;;;;;23.11;41.04297;102906;;;;-67
2023/05/03 13:45:30;;;;;;;;;;;;;;;23.21;40.74121;102892;;;;-69
2023/05/03 13:50:31;;;;;;;;;;;;;;;23.11;41.99902;102882.4;;;;-68
2023/05/03 13:55:30;;;;;;;;;;;;;;;23.06;42.4082;102879.6;;;;-68
2023/05/03 14:00:30;;;;;;;;;;;;;;;23.12;42.62207;102872.2;;;;-68
2023/05/03 14:01:01;;;;;;;2.3;1.1;;;;;;;;;;;;;-69
2023/05/03 14:05:30;;;;;;;;;;;;;;;23.16;42.625;102860.6;;;;-68
2023/05/03 14:10:30;;;;;;;;;;;;;;;23.27;41.55273;102853.8;;;;-69
2023/05/03 14:15:30;;;;;;;;;;;;;;;23.3;41.4873;102845.4;;;;-69
2023/05/03 14:20:31;;;;;;;;;;;;;;;23.3;42.60449;102847;;;;-70
2023/05/03 14:25:31;;;;;;;;;;;;;;;23.38;41.88574;102835.2;;;;-69
2023/05/03 14:30:30;;;;;;;;;;;;;;;23.39;42.15137;102828.9;;;;-69
2023/05/03 14:31:05;;;;;;;2.6;1.3;;;;;;;;;;;;;-69
2023/05/03 14:35:30;;;;;;;;;;;;;;;23.46;40.93652;102821.7;;;;-68
2023/05/03 14:40:30;;;;;;;;;;;;;;;23.42;41.41602;102825.1;;;;-68
2023/05/03 14:45:30;;;;;;;;;;;;;;;23.3;41.73926;102812.4;;;;-69
2023/05/03 14:50:30;;;;;;;;;;;;;;;23.2;41.52344;102800.9;;;;-68
2023/05/03 14:55:30;;;;;;;;;;;;;;;23.2;41.14258;102796.4;;;;-68
2023/05/03 15:00:30;;;;;;;;;;;;;;;23.16;40.71289;102786.7;;;;-68
2023/05/03 15:01:09;;;;;;;3.6;1.7;;;;;;;;;;;;;-69
2023/05/03 15:05:30;;;;;;;;;;;;;;;23.18;42.09668;102793.6;;;;-68
2023/05/03 15:10:30;;;;;;;;;;;;;;;23.14;41.16113;102781.5;;;;-70
2023/05/03 15:15:30;;;;;;;;;;;;;;;23.05;41.63574;102776;;;;-68
2023/05/03 15:20:30;;;;;;;;;;;;;;;22.95;41.12012;102771.2;;;;-70
2023/05/03 15:25:30;;;;;;;;;;;;;;;22.92;39.55078;102769.6;;;;-68
2023/05/03 15:30:30;;;;;;;;;;;;;;;22.68;41.625;102767.9;;;;-68
2023/05/03 15:31:12;;;;;;;2.9;1.4;;;;;;;;;;;;;-68
2023/05/03 15:35:31;;;;;;;;;;;;;;;22.67;41.52051;102759.2;;;;-68
2023/05/03 15:40:30;;;;;;;;;;;;;;;22.57;41.21191;102763.1;;;;-69
2023/05/03 15:45:30;;;;;;;;;;;;;;;22.53;41.05859;102761.7;;;;-69
2023/05/03 15:50:33;;;;;;;;;;;;;;;22.36;41.22754;102753.3;;;;-70
2023/05/03 15:55:30;;;;;;;;;;;;;;;22.29;41.46191;102751.6;;;;-69
2023/05/03 16:00:32;;;;;;;;;;;;;;;22.15;41.17383;102749.2;;;;-67
2023/05/03 16:01:17;;;;;;;4;1.9;;;;;;;;;;;;;-68
2023/05/03 16:05:31;;;;;;;;;;;;;;;22;41.76758;102741.3;;;;-69
2023/05/03 16:10:31;;;;;;;;;;;;;;;21.93;41.7041;102737;;;;-71
2023/05/03 16:15:30;;;;;;;;;;;;;;;21.87;42.10059;102733.5;;;;-70
2023/05/03 16:20:30;;;;;;;;;;;;;;;21.73;41.16895;102733.5;;;;-72
2023/05/03 16:25:30;;;;;;;;;;;;;;;21.53;42.09082;102732.9;;;;-71
2023/05/03 16:30:30;;;;;;;;;;;;;;;21.38;42.04199;102723.5;;;;-71
2023/05/03 16:31:20;;;;;;;4.3;2;;;;;;;;;;;;;-71
2023/05/03 16:35:30;;;;;;;;;;;;;;;21.17;41.49512;102721.7;;;;-73
2023/05/03 16:40:31;;;;;;;;;;;;;;;20.96;42.89746;102719.5;;;;-72
2023/05/03 16:45:30;;;;;;;;;;;;;;;20.85;42.58887;102718.1;;;;-71
2023/05/03 16:50:30;;;;;;;;;;;;;;;20.74;42.83105;102709.5;;;;-69
2023/05/03 16:55:30;;;;;;;;;;;;;;;20.5;43.25391;102710.3;;;;-72
2023/05/03 17:00:30;;;;;;;;;;;;;;;20.22;43.07715;102707.7;;;;-71
2023/05/03 17:01:26;;;;;;;4.6;2;;;;;;;;;;;;;-72
2023/05/03 17:05:31;;;;;;;;;;;;;;;19.91;43.66406;102705;;;;-71
2023/05/03 17:10:33;;;;;;;;;;;;;;;19.72;43.69141;102702.9;;;;-71
2023/05/03 17:15:31;;;;;;;;;;;;;;;19.4;43.24902;102700.4;;;;-72
2023/05/03 17:20:31;;;;;;;;;;;;;;;19.13;44.10059;102696.9;;;;-71
2023/05/03 17:25:30;;;;;;;;;;;;;;;18.9;44.07813;102699.1;;;;-70
2023/05/03 17:30:31;;;;;;;;;;;;;;;18.72;44.50488;102692.5;;;;-71
2023/05/03 17:31:26;;;;;;;5.4;2.8;;;;;;;;;;;;;-73
2023/05/03 17:35:30;;;;;;;;;;;;;;;18.55;44.3291;102695.8;;;;-72
2023/05/03 17:40:30;;;;;;;;;;;;;;;18.28;44.6084;102697.3;;;;-71
2023/05/03 17:45:32;;;;;;;;;;;;;;;18.01;44.67188;102695.5;;;;-71
2023/05/03 17:50:30;;;;;;;;;;;;;;;17.77;45.32031;102704;;;;-71
2023/05/03 17:55:30;;;;;;;;;;;;;;;17.57;45.44727;102702.2;;;;-72
2023/05/03 18:00:32;;;;;;;;;;;;;;;17.34;45.51367;102706;;;;-71
2023/05/03 18:01:29;;;;;;;4.3;2.5;;;;;;;;;;;;;-71
2023/05/03 18:05:35;;;;;;;;;;;;;;;17.08;45.80469;102712.2;;;;-72
2023/05/03 18:10:31;;;;;;;;;;;;;;;16.85;46.5752;102706.5;;;;-70
2023/05/03 18:15:30;;;;;;;;;;;;;;;16.63;46.69922;102706.7;;;;-71
2023/05/03 18:20:30;;;;;;;;;;;;;;;16.43;46.63184;102696.3;;;;-71
2023/05/03 18:25:30;;;;;;;;;;;;;;;16.24;46.41895;102695.5;;;;-71
2023/05/03 18:30:31;;;;;;;;;;;;;;;16.03;46.51172;102698.8;;;;-69
2023/05/03 18:31:32;;;;;;;4.8;2.3;;;;;;;;;;;;;-72
2023/05/03 18:35:30;;;;;;;;;;;;;;;15.83;46.625;102704;;;;-72
2023/05/03 18:40:31;;;;;;;;;;;;;;;15.61;47.13379;102705.1;;;;-72
2023/05/03 18:45:30;;;;;;;;;;;;;;;15.4;47.25684;102702;;;;-71
2023/05/03 18:50:30;;;;;;;;;;;;;;;15.17;47.26758;102701.3;;;;-71
2023/05/03 18:55:30;;;;;;;;;;;;;;;14.98;47.78906;102695.5;;;;-71
2023/05/03 19:00:30;;;;;;;;;;;;;;;14.79;48.20801;102701.1;;;;-71
2023/05/03 19:01:35;;;;;;;4.3;2.3;;;;;;;;;;;;;-72
2023/05/03 19:05:30;;;;;;;;;;;;;;;14.6;48.24219;102707.1;;;;-70
2023/05/03 19:10:32;;;;;;;;;;;;;;;14.39;48.49121;102701.5;;;;-70
2023/05/03 19:15:30;;;;;;;;;;;;;;;14.19;48.75;102702.8;;;;-72
2023/05/03 19:20:30;;;;;;;;;;;;;;;14.03;48.88965;102695;;;;-72
2023/05/03 19:25:30;;;;;;;;;;;;;;;13.84;49.19531;102694.9;;;;-73
2023/05/03 19:30:30;;;;;;;;;;;;;;;13.7;49.38184;102697.3;;;;-74
2023/05/03 19:31:37;;;;;;;5.2;2.7;;;;;;;;;;;;;-70
2023/05/03 19:35:31;;;;;;;;;;;;;;;13.5;49.70703;102696.8;;;;-72
2023/05/03 19:40:32;;;;;;;;;;;;;;;13.36;50.11816;102697.5;;;;-69
2023/05/03 19:45:30;;;;;;;;;;;;;;;13.23;50.25;102699;;;;-72
2023/05/03 19:50:30;;;;;;;;;;;;;;;13.08;50.38965;102702.8;;;;-72
2023/05/03 19:55:30;;;;;;;;;;;;;;;12.93;51.13574;102704.3;;;;-71
2023/05/03 20:00:30;;;;;;;;;;;;;;;12.8;51.09863;102708.2;;;;-71
2023/05/03 20:01:39;;;;;;;6.2;2.6;;;;;;;;;;;;;-71
2023/05/03 20:05:30;;;;;;;;;;;;;;;12.7;51.36719;102705.4;;;;-71
2023/05/03 20:10:35;;;;;;;;;;;;;;;12.57;51.54297;102704.1;;;;-70
2023/05/03 20:15:30;;;;;;;;;;;;;;;12.47;51.58691;102700.8;;;;-72
2023/05/03 20:20:31;;;;;;;;;;;;;;;12.34;52.0752;102698.5;;;;-69
2023/05/03 20:25:35;;;;;;;;;;;;;;;12.27;52.35742;102698;;;;-69
2023/05/03 20:30:33;;;;;;;;;;;;;;;12.16;52.46875;102704.8;;;;-73
2023/05/03 20:31:41;;;;;;;5;2.8;;;;;;;;;;;;;-68
2023/05/03 20:35:32;;;;;;;;;;;;;;;12.1;52.62891;102699.5;;;;-69
2023/05/03 20:40:31;;;;;;;;;;;;;;;11.99;52.78418;102699.8;;;;-70
2023/05/03 20:45:30;;;;;;;;;;;;;;;11.88;53.03809;102695.9;;;;-70
2023/05/03 20:50:30;;;;;;;;;;;;;;;11.78;53.49707;102698.7;;;;-70
2023/05/03 20:55:30;;;;;;;;;;;;;;;11.69;53.59766;102695.3;;;;-69
2023/05/03 21:00:30;;;;;;;;;;;;;;;11.61;54.03516;102687.8;;;;-69
2023/05/03 21:01:45;;;;;;;7.2;2.9;;;;;;;;;;;;;-70
2023/05/03 21:05:34;;;;;;;;;;;;;;;11.53;53.91309;102684.3;;;;-70
2023/05/03 21:10:30;;;;;;;;;;;;;;;11.46;54.2832;102674.4;;;;-70
2023/05/03 21:15:30;;;;;;;;;;;;;;;11.38;54.46484;102672.9;;;;-69
2023/05/03 21:20:30;;;;;;;;;;;;;;;11.31;54.43359;102673;;;;-71
2023/05/03 21:25:30;;;;;;;;;;;;;;;11.25;54.68359;102677.1;;;;-69
2023/05/03 21:30:30;;;;;;;;;;;;;;;11.15;54.90527;102677.4;;;;-70
2023/05/03 21:31:44;;;;;;;5;2.6;;;;;;;;;;;;;-68
2023/05/03 21:35:31;;;;;;;;;;;;;;;11.09;55.41016;102682.8;;;;-68
2023/05/03 21:40:30;;;;;;;;;;;;;;;11.02;55.25781;102670.4;;;;-69
2023/05/03 21:45:31;;;;;;;;;;;;;;;10.95;55.79492;102667.8;;;;-69
2023/05/03 21:50:30;;;;;;;;;;;;;;;10.93;55.46777;102658.4;;;;-69
2023/05/03 21:55:31;;;;;;;;;;;;;;;10.87;55.96289;102656.2;;;;-69
2023/05/03 22:00:30;;;;;;;;;;;;;;;10.8;56.11035;102642.4;;;;-70
2023/05/03 22:01:45;;;;;;;7.5;3;;;;;;;;;;;;;-69
2023/05/03 22:05:30;;;;;;;;;;;;;;;10.75;56.19336;102635.1;;;;-69
2023/05/03 22:10:30;;;;;;;;;;;;;;;10.7;56.41992;102624.7;;;;-69
2023/05/03 22:15:33;;;;;;;;;;;;;;;10.63;56.44531;102622.7;;;;-69
2023/05/03 22:20:31;;;;;;;;;;;;;;;10.58;56.51563;102622.7;;;;-69
2023/05/03 22:25:30;;;;;;;;;;;;;;;10.55;56.72461;102619.1;;;;-70
2023/05/03 22:30:33;;;;;;;;;;;;;;;10.46;56.92285;102622.5;;;;-68
2023/05/03 22:31:47;;;;;;;5.2;2.9;;;;;;;;;;;;;-68
2023/05/03 22:35:30;;;;;;;;;;;;;;;10.41;56.93945;102616.6;;;;-69
2023/05/03 22:40:31;;;;;;;;;;;;;;;10.37;57.30176;102619;;;;-72
2023/05/03 22:45:30;;;;;;;;;;;;;;;10.32;57.17383;102615.3;;;;-69
2023/05/03 22:50:30;;;;;;;;;;;;;;;10.29;57.21191;102613.3;;;;-71
2023/05/03 22:55:30;;;;;;;;;;;;;;;10.25;57.22949;102614.2;;;;-70
2023/05/03 23:00:31;;;;;;;;;;;;;;;10.18;57.5332;102613.5;;;;-69
2023/05/03 23:01:49;;;;;;;6.1;3.3;;;;;;;;;;;;;-69
2023/05/03 23:05:30;;;;;;;;;;;;;;;10.13;57.70508;102611.4;;;;-70
2023/05/03 23:10:30;;;;;;;;;;;;;;;10.09;57.57617;102612.6;;;;-71
2023/05/03 23:15:30;;;;;;;;;;;;;;;10.05;57.67188;102606.2;;;;-67
2023/05/03 23:20:32;;;;;;;;;;;;;;;9.98;58.12891;102598.7;;;;-70
2023/05/03 23:25:30;;;;;;;;;;;;;;;9.95;58.22559;102596.2;;;;-68
2023/05/03 23:30:30;;;;;;;;;;;;;;;9.91;58.36523;102591;;;;-68
2023/05/03 23:31:49;;;;;;;6.5;3.6;;;;;;;;;;;;;-69
2023/05/03 23:35:30;;;;;;;;;;;;;;;9.89;58.48438;102586.5;;;;-68
2023/05/03 23:40:33;;;;;;;;;;;;;;;9.85;58.86816;102586.3;;;;-68
2023/05/03 23:45:30;;;;;;;;;;;;;;;9.81;58.8291;102581.8;;;;-68
2023/05/03 23:50:30;;;;;;;;;;;;;;;9.78;58.64844;102577.3;;;;-67
2023/05/03 23:55:30;;;;;;;;;;;;;;;9.71;58.84863;102574.3;;;;-68
